sensor_id;sensor_type;location;lat;lon;timestamp;P1;durP1;ratioP1;P2;durP2;ratioP2
13590;SDS011;6866;50.778;7.206;2023-06-22T00:01:49;9.88;;;7.88;;
13590;SDS011;6866;50.778;7.206;2023-06-22T00:04:15;10.20;;;7.13;;
13590;SDS011;6866;50.778;7.206;2023-06-22T00:06:40;9.63;;;7.10;;
13590;SDS011;6866;50.778;7.206;2023-06-22T00:09:06;11.05;;;7.07;;
13590;SDS011;6866;50.778;7.206;2023-06-22T00:11:35;9.52;;;7.13;;
13590;SDS011;6866;50.778;7.206;2023-06-22T00:14:01;11.40;;;7.30;;
13590;SDS011;6866;50.778;7.206;2023-06-22T00:16:27;13.35;;;7.80;;
13590;SDS011;6866;50.778;7.206;2023-06-22T00:18:53;11.88;;;7.35;;
13590;SDS011;6866;50.778;7.206;2023-06-22T00:21:18;9.60;;;7.55;;
13590;SDS011;6866;50.778;7.206;2023-06-22T00:23:47;12.27;;;7.22;;
13590;SDS011;6866;50.778;7.206;2023-06-22T00:26:13;10.70;;;6.97;;
13590;SDS011;6866;50.778;7.206;2023-06-22T00:28:38;11.68;;;7.55;;
13590;SDS011;6866;50.778;7.206;2023-06-22T00:31:04;10.52;;;7.28;;
13590;SDS011;6866;50.778;7.206;2023-06-22T00:33:30;12.85;;;7.03;;
13590;SDS011;6866;50.778;7.206;2023-06-22T00:35:56;9.55;;;7.15;;
13590;SDS011;6866;50.778;7.206;2023-06-22T00:38:22;11.00;;;7.40;;
13590;SDS011;6866;50.778;7.206;2023-06-22T00:40:48;8.88;;;7.18;;
13590;SDS011;6866;50.778;7.206;2023-06-22T00:43:13;9.60;;;7.50;;
13590;SDS011;6866;50.778;7.206;2023-06-22T00:45:39;10.05;;;7.10;;
13590;SDS011;6866;50.778;7.206;2023-06-22T00:48:05;7.57;;;6.40;;
13590;SDS011;6866;50.778;7.206;2023-06-22T00:50:32;8.75;;;7.00;;
13590;SDS011;6866;50.778;7.206;2023-06-22T00:53:00;11.48;;;7.00;;
13590;SDS011;6866;50.778;7.206;2023-06-22T00:55:33;10.55;;;7.38;;
13590;SDS011;6866;50.778;7.206;2023-06-22T00:58:02;8.48;;;6.88;;
13590;SDS011;6866;50.778;7.206;2023-06-22T01:05:36;9.05;;;6.70;;
13590;SDS011;6866;50.778;7.206;2023-06-22T01:11:22;12.07;;;6.90;;
13590;SDS011;6866;50.778;7.206;2023-06-22T01:14:20;8.63;;;7.00;;
13590;SDS011;6866;50.778;7.206;2023-06-22T01:16:51;9.98;;;6.88;;
13590;SDS011;6866;50.778;7.206;2023-06-22T01:22:06;12.63;;;7.55;;
13590;SDS011;6866;50.778;7.206;2023-06-22T01:27:47;11.85;;;7.10;;
13590;SDS011;6866;50.778;7.206;2023-06-22T01:30:25;13.90;;;7.57;;
13590;SDS011;6866;50.778;7.206;2023-06-22T01:32:53;13.35;;;7.78;;
13590;SDS011;6866;50.778;7.206;2023-06-22T01:35:20;12.23;;;7.93;;
13590;SDS011;6866;50.778;7.206;2023-06-22T01:37:46;11.43;;;7.82;;
13590;SDS011;6866;50.778;7.206;2023-06-22T01:40:13;11.27;;;7.70;;
13590;SDS011;6866;50.778;7.206;2023-06-22T01:42:39;11.00;;;7.32;;
13590;SDS011;6866;50.778;7.206;2023-06-22T01:45:06;14.80;;;7.70;;
13590;SDS011;6866;50.778;7.206;2023-06-22T01:47:32;14.43;;;7.82;;
13590;SDS011;6866;50.778;7.206;2023-06-22T01:49:59;13.23;;;7.45;;
13590;SDS011;6866;50.778;7.206;2023-06-22T01:52:24;14.48;;;7.78;;
13590;SDS011;6866;50.778;7.206;2023-06-22T01:54:50;14.95;;;7.75;;
13590;SDS011;6866;50.778;7.206;2023-06-22T01:57:16;16.58;;;7.32;;
13590;SDS011;6866;50.778;7.206;2023-06-22T01:59:47;16.27;;;8.50;;
13590;SDS011;6866;50.778;7.206;2023-06-22T02:02:21;16.75;;;8.48;;
13590;SDS011;6866;50.778;7.206;2023-06-22T02:04:55;21.63;;;8.38;;
13590;SDS011;6866;50.778;7.206;2023-06-22T02:07:24;16.85;;;8.15;;
13590;SDS011;6866;50.778;7.206;2023-06-22T02:09:54;14.93;;;8.57;;
13590;SDS011;6866;50.778;7.206;2023-06-22T02:12:22;13.10;;;7.50;;
13590;SDS011;6866;50.778;7.206;2023-06-22T02:14:52;15.35;;;7.53;;
13590;SDS011;6866;50.778;7.206;2023-06-22T02:17:18;15.25;;;7.68;;
13590;SDS011;6866;50.778;7.206;2023-06-22T02:19:44;13.45;;;7.70;;
13590;SDS011;6866;50.778;7.206;2023-06-22T02:22:10;10.70;;;7.57;;
13590;SDS011;6866;50.778;7.206;2023-06-22T02:24:37;14.75;;;7.75;;
13590;SDS011;6866;50.778;7.206;2023-06-22T02:27:03;13.93;;;8.00;;
13590;SDS011;6866;50.778;7.206;2023-06-22T02:29:30;12.38;;;6.93;;
13590;SDS011;6866;50.778;7.206;2023-06-22T02:31:56;16.85;;;7.80;;
13590;SDS011;6866;50.778;7.206;2023-06-22T02:34:22;13.50;;;7.75;;
13590;SDS011;6866;50.778;7.206;2023-06-22T02:36:50;11.55;;;7.47;;
13590;SDS011;6866;50.778;7.206;2023-06-22T02:39:18;14.32;;;7.95;;
13590;SDS011;6866;50.778;7.206;2023-06-22T02:41:45;13.75;;;7.53;;
13590;SDS011;6866;50.778;7.206;2023-06-22T02:44:11;14.38;;;8.32;;
13590;SDS011;6866;50.778;7.206;2023-06-22T02:46:36;15.23;;;8.30;;
13590;SDS011;6866;50.778;7.206;2023-06-22T02:49:02;14.10;;;8.23;;
13590;SDS011;6866;50.778;7.206;2023-06-22T02:51:27;14.13;;;8.30;;
13590;SDS011;6866;50.778;7.206;2023-06-22T02:53:53;16.33;;;8.45;;
13590;SDS011;6866;50.778;7.206;2023-06-22T02:56:22;17.77;;;8.20;;
13590;SDS011;6866;50.778;7.206;2023-06-22T02:58:50;13.88;;;8.20;;
13590;SDS011;6866;50.778;7.206;2023-06-22T03:01:16;16.65;;;8.13;;
13590;SDS011;6866;50.778;7.206;2023-06-22T03:03:42;14.70;;;8.00;;
13590;SDS011;6866;50.778;7.206;2023-06-22T03:06:07;11.23;;;7.75;;
13590;SDS011;6866;50.778;7.206;2023-06-22T03:08:33;14.48;;;7.60;;
13590;SDS011;6866;50.778;7.206;2023-06-22T03:10:59;13.27;;;8.20;;
13590;SDS011;6866;50.778;7.206;2023-06-22T03:13:24;15.88;;;8.20;;
13590;SDS011;6866;50.778;7.206;2023-06-22T03:15:50;15.95;;;8.80;;
13590;SDS011;6866;50.778;7.206;2023-06-22T03:18:16;13.23;;;8.35;;
13590;SDS011;6866;50.778;7.206;2023-06-22T03:20:41;17.50;;;8.40;;
13590;SDS011;6866;50.778;7.206;2023-06-22T03:23:07;14.93;;;8.63;;
13590;SDS011;6866;50.778;7.206;2023-06-22T03:25:32;15.85;;;8.45;;
13590;SDS011;6866;50.778;7.206;2023-06-22T03:27:58;14.07;;;8.43;;
13590;SDS011;6866;50.778;7.206;2023-06-22T03:30:25;14.32;;;8.30;;
13590;SDS011;6866;50.778;7.206;2023-06-22T03:32:51;10.45;;;8.07;;
13590;SDS011;6866;50.778;7.206;2023-06-22T03:35:16;12.27;;;8.25;;
13590;SDS011;6866;50.778;7.206;2023-06-22T03:37:42;13.15;;;8.38;;
13590;SDS011;6866;50.778;7.206;2023-06-22T03:40:07;12.07;;;8.43;;
13590;SDS011;6866;50.778;7.206;2023-06-22T03:42:34;12.63;;;8.32;;
13590;SDS011;6866;50.778;7.206;2023-06-22T03:45:01;15.02;;;8.48;;
13590;SDS011;6866;50.778;7.206;2023-06-22T03:47:28;16.55;;;9.15;;
13590;SDS011;6866;50.778;7.206;2023-06-22T03:49:54;12.90;;;8.27;;
13590;SDS011;6866;50.778;7.206;2023-06-22T03:52:19;14.60;;;9.23;;
13590;SDS011;6866;50.778;7.206;2023-06-22T03:54:46;14.13;;;8.60;;
13590;SDS011;6866;50.778;7.206;2023-06-22T03:57:12;14.73;;;8.35;;
13590;SDS011;6866;50.778;7.206;2023-06-22T03:59:38;17.95;;;8.60;;
13590;SDS011;6866;50.778;7.206;2023-06-22T04:02:03;16.10;;;9.38;;
13590;SDS011;6866;50.778;7.206;2023-06-22T04:04:29;11.95;;;8.40;;
13590;SDS011;6866;50.778;7.206;2023-06-22T04:06:54;14.23;;;9.35;;
13590;SDS011;6866;50.778;7.206;2023-06-22T04:09:20;14.15;;;8.93;;
13590;SDS011;6866;50.778;7.206;2023-06-22T04:11:46;13.52;;;9.32;;
13590;SDS011;6866;50.778;7.206;2023-06-22T04:14:12;13.88;;;9.23;;
13590;SDS011;6866;50.778;7.206;2023-06-22T04:16:38;12.70;;;9.32;;
13590;SDS011;6866;50.778;7.206;2023-06-22T04:19:03;15.75;;;9.65;;
13590;SDS011;6866;50.778;7.206;2023-06-22T04:21:29;22.52;;;12.07;;
13590;SDS011;6866;50.778;7.206;2023-06-22T04:23:54;14.88;;;9.70;;
13590;SDS011;6866;50.778;7.206;2023-06-22T04:26:20;17.13;;;11.13;;
13590;SDS011;6866;50.778;7.206;2023-06-22T04:28:46;16.73;;;10.55;;
13590;SDS011;6866;50.778;7.206;2023-06-22T04:31:16;17.35;;;11.35;;
13590;SDS011;6866;50.778;7.206;2023-06-22T04:33:43;23.38;;;11.32;;
13590;SDS011;6866;50.778;7.206;2023-06-22T04:36:08;19.42;;;11.00;;
13590;SDS011;6866;50.778;7.206;2023-06-22T04:38:35;18.63;;;11.13;;
13590;SDS011;6866;50.778;7.206;2023-06-22T04:41:01;16.02;;;11.40;;
13590;SDS011;6866;50.778;7.206;2023-06-22T04:43:28;15.40;;;10.85;;
13590;SDS011;6866;50.778;7.206;2023-06-22T04:45:55;14.05;;;10.45;;
13590;SDS011;6866;50.778;7.206;2023-06-22T04:48:21;17.75;;;11.23;;
13590;SDS011;6866;50.778;7.206;2023-06-22T04:50:47;19.00;;;11.02;;
13590;SDS011;6866;50.778;7.206;2023-06-22T04:53:12;17.75;;;10.95;;
13590;SDS011;6866;50.778;7.206;2023-06-22T04:55:39;20.13;;;11.15;;
13590;SDS011;6866;50.778;7.206;2023-06-22T04:58:10;14.52;;;10.57;;
13590;SDS011;6866;50.778;7.206;2023-06-22T05:00:37;15.23;;;9.95;;
13590;SDS011;6866;50.778;7.206;2023-06-22T05:03:03;15.50;;;10.05;;
13590;SDS011;6866;50.778;7.206;2023-06-22T05:05:31;14.32;;;10.77;;
13590;SDS011;6866;50.778;7.206;2023-06-22T05:07:57;13.82;;;10.85;;
13590;SDS011;6866;50.778;7.206;2023-06-22T05:10:25;15.98;;;10.82;;
13590;SDS011;6866;50.778;7.206;2023-06-22T05:12:51;15.07;;;10.10;;
13590;SDS011;6866;50.778;7.206;2023-06-22T05:15:16;12.07;;;9.25;;
13590;SDS011;6866;50.778;7.206;2023-06-22T05:17:44;9.82;;;8.18;;
13590;SDS011;6866;50.778;7.206;2023-06-22T05:20:10;11.13;;;8.18;;
13590;SDS011;6866;50.778;7.206;2023-06-22T05:22:39;11.30;;;8.27;;
13590;SDS011;6866;50.778;7.206;2023-06-22T05:25:08;10.35;;;8.40;;
13590;SDS011;6866;50.778;7.206;2023-06-22T05:27:35;13.07;;;8.93;;
13590;SDS011;6866;50.778;7.206;2023-06-22T05:30:04;11.45;;;8.57;;
13590;SDS011;6866;50.778;7.206;2023-06-22T05:32:31;11.75;;;8.77;;
13590;SDS011;6866;50.778;7.206;2023-06-22T05:34:57;12.05;;;8.93;;
13590;SDS011;6866;50.778;7.206;2023-06-22T05:37:23;13.68;;;8.45;;
13590;SDS011;6866;50.778;7.206;2023-06-22T05:39:48;12.13;;;8.63;;
13590;SDS011;6866;50.778;7.206;2023-06-22T05:42:13;10.40;;;8.50;;
13590;SDS011;6866;50.778;7.206;2023-06-22T05:44:39;11.75;;;8.38;;
13590;SDS011;6866;50.778;7.206;2023-06-22T05:47:05;10.20;;;8.25;;
13590;SDS011;6866;50.778;7.206;2023-06-22T05:49:31;11.65;;;9.18;;
13590;SDS011;6866;50.778;7.206;2023-06-22T05:51:57;11.82;;;8.88;;
13590;SDS011;6866;50.778;7.206;2023-06-22T05:54:24;11.55;;;8.57;;
13590;SDS011;6866;50.778;7.206;2023-06-22T05:56:50;10.57;;;8.18;;
13590;SDS011;6866;50.778;7.206;2023-06-22T05:59:15;11.57;;;8.38;;
13590;SDS011;6866;50.778;7.206;2023-06-22T06:01:41;12.13;;;8.50;;
13590;SDS011;6866;50.778;7.206;2023-06-22T06:04:06;11.43;;;8.43;;
13590;SDS011;6866;50.778;7.206;2023-06-22T06:06:33;10.85;;;8.52;;
13590;SDS011;6866;50.778;7.206;2023-06-22T06:08:59;13.68;;;8.98;;
13590;SDS011;6866;50.778;7.206;2023-06-22T06:11:25;11.00;;;8.10;;
13590;SDS011;6866;50.778;7.206;2023-06-22T06:13:51;11.20;;;8.23;;
13590;SDS011;6866;50.778;7.206;2023-06-22T06:16:17;10.88;;;8.82;;
13590;SDS011;6866;50.778;7.206;2023-06-22T06:18:42;13.10;;;8.48;;
13590;SDS011;6866;50.778;7.206;2023-06-22T06:21:08;10.52;;;8.65;;
13590;SDS011;6866;50.778;7.206;2023-06-22T06:23:33;12.43;;;9.40;;
13590;SDS011;6866;50.778;7.206;2023-06-22T06:25:59;11.50;;;8.73;;
13590;SDS011;6866;50.778;7.206;2023-06-22T06:28:24;9.60;;;8.60;;
13590;SDS011;6866;50.778;7.206;2023-06-22T06:30:50;11.32;;;8.55;;
13590;SDS011;6866;50.778;7.206;2023-06-22T06:33:16;10.23;;;8.35;;
13590;SDS011;6866;50.778;7.206;2023-06-22T06:35:42;11.02;;;8.35;;
13590;SDS011;6866;50.778;7.206;2023-06-22T06:38:08;10.00;;;8.38;;
13590;SDS011;6866;50.778;7.206;2023-06-22T06:40:33;11.48;;;8.73;;
13590;SDS011;6866;50.778;7.206;2023-06-22T06:42:59;9.57;;;8.20;;
13590;SDS011;6866;50.778;7.206;2023-06-22T06:45:26;9.65;;;8.60;;
13590;SDS011;6866;50.778;7.206;2023-06-22T06:47:53;10.57;;;8.20;;
13590;SDS011;6866;50.778;7.206;2023-06-22T06:50:19;12.90;;;8.75;;
13590;SDS011;6866;50.778;7.206;2023-06-22T06:52:45;10.32;;;8.75;;
13590;SDS011;6866;50.778;7.206;2023-06-22T06:55:11;10.35;;;8.15;;
13590;SDS011;6866;50.778;7.206;2023-06-22T06:57:40;12.73;;;8.15;;
13590;SDS011;6866;50.778;7.206;2023-06-22T07:00:10;10.73;;;7.72;;
13590;SDS011;6866;50.778;7.206;2023-06-22T07:02:41;9.82;;;7.47;;
13590;SDS011;6866;50.778;7.206;2023-06-22T07:05:08;9.23;;;7.60;;
13590;SDS011;6866;50.778;7.206;2023-06-22T07:07:37;14.00;;;7.55;;
13590;SDS011;6866;50.778;7.206;2023-06-22T07:10:04;8.98;;;6.85;;
13590;SDS011;6866;50.778;7.206;2023-06-22T07:12:30;9.60;;;7.13;;
13590;SDS011;6866;50.778;7.206;2023-06-22T07:15:05;9.57;;;6.90;;
13590;SDS011;6866;50.778;7.206;2023-06-22T07:17:36;8.43;;;7.13;;
13590;SDS011;6866;50.778;7.206;2023-06-22T07:20:03;9.45;;;7.53;;
13590;SDS011;6866;50.778;7.206;2023-06-22T07:22:37;10.05;;;7.70;;
13590;SDS011;6866;50.778;7.206;2023-06-22T07:25:06;9.50;;;7.18;;
13590;SDS011;6866;50.778;7.206;2023-06-22T07:27:38;8.60;;;6.97;;
13590;SDS011;6866;50.778;7.206;2023-06-22T07:30:07;11.00;;;7.10;;
13590;SDS011;6866;50.778;7.206;2023-06-22T07:32:34;9.07;;;7.30;;
13590;SDS011;6866;50.778;7.206;2023-06-22T07:35:00;8.75;;;7.57;;
13590;SDS011;6866;50.778;7.206;2023-06-22T07:37:26;9.73;;;7.60;;
13590;SDS011;6866;50.778;7.206;2023-06-22T07:39:53;10.48;;;6.90;;
13590;SDS011;6866;50.778;7.206;2023-06-22T07:42:23;11.85;;;7.07;;
13590;SDS011;6866;50.778;7.206;2023-06-22T07:44:51;9.23;;;7.10;;
13590;SDS011;6866;50.778;7.206;2023-06-22T07:47:17;8.63;;;7.43;;
13590;SDS011;6866;50.778;7.206;2023-06-22T07:49:44;8.23;;;7.13;;
13590;SDS011;6866;50.778;7.206;2023-06-22T07:52:10;11.15;;;7.35;;
13590;SDS011;6866;50.778;7.206;2023-06-22T08:09:09;7.78;;;6.68;;
13590;SDS011;6866;50.778;7.206;2023-06-22T08:11:35;8.50;;;6.80;;
13590;SDS011;6866;50.778;7.206;2023-06-22T08:14:00;10.68;;;6.82;;
13590;SDS011;6866;50.778;7.206;2023-06-22T08:16:26;12.50;;;7.07;;
13590;SDS011;6866;50.778;7.206;2023-06-22T08:18:51;11.03;;;6.80;;
13590;SDS011;6866;50.778;7.206;2023-06-22T08:21:17;10.00;;;6.67;;
13590;SDS011;6866;50.778;7.206;2023-06-22T08:23:42;14.23;;;7.27;;
13590;SDS011;6866;50.778;7.206;2023-06-22T08:26:08;13.20;;;7.40;;
13590;SDS011;6866;50.778;7.206;2023-06-22T08:28:33;10.10;;;6.60;;
13590;SDS011;6866;50.778;7.206;2023-06-22T08:30:59;8.90;;;6.50;;
13590;SDS011;6866;50.778;7.206;2023-06-22T08:38:23;9.73;;;6.80;;
13590;SDS011;6866;50.778;7.206;2023-06-22T08:40:48;8.87;;;6.73;;
13590;SDS011;6866;50.778;7.206;2023-06-22T08:43:14;7.70;;;6.77;;
13590;SDS011;6866;50.778;7.206;2023-06-22T08:45:39;7.60;;;6.80;;
13590;SDS011;6866;50.778;7.206;2023-06-22T08:48:05;9.53;;;7.20;;
13590;SDS011;6866;50.778;7.206;2023-06-22T08:50:30;8.30;;;6.53;;
13590;SDS011;6866;50.778;7.206;2023-06-22T08:52:56;8.23;;;6.83;;
13590;SDS011;6866;50.778;7.206;2023-06-22T09:00:13;8.85;;;7.10;;
13590;SDS011;6866;50.778;7.206;2023-06-22T09:02:42;9.35;;;6.72;;
13590;SDS011;6866;50.778;7.206;2023-06-22T09:05:09;9.68;;;7.28;;
13590;SDS011;6866;50.778;7.206;2023-06-22T09:12:25;9.02;;;6.50;;
13590;SDS011;6866;50.778;7.206;2023-06-22T09:36:45;10.43;;;7.25;;
13590;SDS011;6866;50.778;7.206;2023-06-22T09:39:14;10.50;;;6.85;;
13590;SDS011;6866;50.778;7.206;2023-06-22T09:41:39;13.93;;;6.53;;
13590;SDS011;6866;50.778;7.206;2023-06-22T09:44:05;18.55;;;7.28;;
13590;SDS011;6866;50.778;7.206;2023-06-22T09:46:31;12.48;;;7.32;;
13590;SDS011;6866;50.778;7.206;2023-06-22T09:48:56;8.55;;;7.00;;
13590;SDS011;6866;50.778;7.206;2023-06-22T09:51:22;8.67;;;7.10;;
13590;SDS011;6866;50.778;7.206;2023-06-22T09:53:48;11.10;;;7.38;;
13590;SDS011;6866;50.778;7.206;2023-06-22T09:56:15;10.75;;;7.43;;
13590;SDS011;6866;50.778;7.206;2023-06-22T09:58:41;10.10;;;7.68;;
13590;SDS011;6866;50.778;7.206;2023-06-22T10:01:08;10.77;;;7.00;;
13590;SDS011;6866;50.778;7.206;2023-06-22T10:03:33;9.57;;;7.28;;
13590;SDS011;6866;50.778;7.206;2023-06-22T10:05:59;11.35;;;7.47;;
13590;SDS011;6866;50.778;7.206;2023-06-22T10:08:24;9.45;;;7.43;;
13590;SDS011;6866;50.778;7.206;2023-06-22T10:10:50;9.13;;;7.75;;
13590;SDS011;6866;50.778;7.206;2023-06-22T10:13:15;10.93;;;7.32;;
13590;SDS011;6866;50.778;7.206;2023-06-22T10:18:07;9.60;;;7.30;;
13590;SDS011;6866;50.778;7.206;2023-06-22T10:20:32;10.30;;;7.47;;
13590;SDS011;6866;50.778;7.206;2023-06-22T10:22:58;10.35;;;7.50;;
13590;SDS011;6866;50.778;7.206;2023-06-22T10:25:24;10.20;;;8.13;;
13590;SDS011;6866;50.778;7.206;2023-06-22T10:27:49;11.10;;;8.02;;
13590;SDS011;6866;50.778;7.206;2023-06-22T10:30:15;9.20;;;7.45;;
13590;SDS011;6866;50.778;7.206;2023-06-22T10:32:41;10.57;;;8.25;;
13590;SDS011;6866;50.778;7.206;2023-06-22T10:35:08;9.15;;;7.30;;
13590;SDS011;6866;50.778;7.206;2023-06-22T10:37:35;13.55;;;8.20;;
13590;SDS011;6866;50.778;7.206;2023-06-22T10:40:01;11.07;;;7.78;;
13590;SDS011;6866;50.778;7.206;2023-06-22T10:42:28;10.25;;;8.50;;
13590;SDS011;6866;50.778;7.206;2023-06-22T10:44:53;14.27;;;9.48;;
13590;SDS011;6866;50.778;7.206;2023-06-22T10:47:19;16.25;;;9.25;;
13590;SDS011;6866;50.778;7.206;2023-06-22T10:49:44;11.98;;;9.00;;
13590;SDS011;6866;50.778;7.206;2023-06-22T10:52:10;13.45;;;9.70;;
13590;SDS011;6866;50.778;7.206;2023-06-22T10:54:35;15.63;;;9.75;;
13590;SDS011;6866;50.778;7.206;2023-06-22T10:57:02;13.27;;;9.95;;
13590;SDS011;6866;50.778;7.206;2023-06-22T10:59:28;15.18;;;11.38;;
13590;SDS011;6866;50.778;7.206;2023-06-22T11:01:57;27.88;;;14.32;;
13590;SDS011;6866;50.778;7.206;2023-06-22T11:04:23;27.95;;;13.48;;
13590;SDS011;6866;50.778;7.206;2023-06-22T11:06:49;29.23;;;15.48;;
13590;SDS011;6866;50.778;7.206;2023-06-22T11:09:16;26.88;;;14.73;;
13590;SDS011;6866;50.778;7.206;2023-06-22T11:11:45;31.33;;;16.45;;
13590;SDS011;6866;50.778;7.206;2023-06-22T11:14:14;20.27;;;13.10;;
13590;SDS011;6866;50.778;7.206;2023-06-22T11:16:39;21.05;;;11.68;;
13590;SDS011;6866;50.778;7.206;2023-06-22T11:19:05;14.88;;;10.00;;
13590;SDS011;6866;50.778;7.206;2023-06-22T11:21:31;17.67;;;9.65;;
13590;SDS011;6866;50.778;7.206;2023-06-22T11:23:57;16.38;;;9.68;;
13590;SDS011;6866;50.778;7.206;2023-06-22T11:26:23;13.75;;;9.13;;
13590;SDS011;6866;50.778;7.206;2023-06-22T11:28:52;17.02;;;10.38;;
13590;SDS011;6866;50.778;7.206;2023-06-22T11:31:17;13.10;;;9.70;;
13590;SDS011;6866;50.778;7.206;2023-06-22T11:33:43;14.93;;;9.80;;
13590;SDS011;6866;50.778;7.206;2023-06-22T11:36:10;16.90;;;10.80;;
13590;SDS011;6866;50.778;7.206;2023-06-22T11:38:36;17.10;;;12.63;;
13590;SDS011;6866;50.778;7.206;2023-06-22T11:41:04;18.90;;;12.75;;
13590;SDS011;6866;50.778;7.206;2023-06-22T11:43:32;20.02;;;13.35;;
13590;SDS011;6866;50.778;7.206;2023-06-22T11:45:58;20.13;;;14.05;;
13590;SDS011;6866;50.778;7.206;2023-06-22T11:48:24;16.67;;;13.18;;
13590;SDS011;6866;50.778;7.206;2023-06-22T11:50:50;14.77;;;11.68;;
13590;SDS011;6866;50.778;7.206;2023-06-22T11:55:42;17.70;;;12.23;;
13590;SDS011;6866;50.778;7.206;2023-06-22T11:58:09;16.92;;;12.05;;
13590;SDS011;6866;50.778;7.206;2023-06-22T12:00:34;13.98;;;10.23;;
13590;SDS011;6866;50.778;7.206;2023-06-22T12:03:00;15.23;;;11.25;;
13590;SDS011;6866;50.778;7.206;2023-06-22T12:05:26;12.27;;;9.68;;
13590;SDS011;6866;50.778;7.206;2023-06-22T12:07:54;12.57;;;7.82;;
13590;SDS011;6866;50.778;7.206;2023-06-22T12:10:24;8.88;;;6.78;;
13590;SDS011;6866;50.778;7.206;2023-06-22T12:12:50;10.10;;;6.63;;
13590;SDS011;6866;50.778;7.206;2023-06-22T12:15:16;9.43;;;6.60;;
13590;SDS011;6866;50.778;7.206;2023-06-22T12:17:41;9.15;;;6.18;;
13590;SDS011;6866;50.778;7.206;2023-06-22T12:20:07;10.10;;;6.78;;
13590;SDS011;6866;50.778;7.206;2023-06-22T12:22:34;10.88;;;6.85;;
13590;SDS011;6866;50.778;7.206;2023-06-22T12:25:01;10.95;;;7.03;;
13590;SDS011;6866;50.778;7.206;2023-06-22T12:27:26;9.65;;;6.65;;
13590;SDS011;6866;50.778;7.206;2023-06-22T12:29:52;9.52;;;6.43;;
13590;SDS011;6866;50.778;7.206;2023-06-22T12:32:17;7.90;;;6.03;;
13590;SDS011;6866;50.778;7.206;2023-06-22T12:34:43;7.53;;;6.00;;
13590;SDS011;6866;50.778;7.206;2023-06-22T12:37:10;7.75;;;5.63;;
13590;SDS011;6866;50.778;7.206;2023-06-22T12:39:35;8.65;;;5.53;;
13590;SDS011;6866;50.778;7.206;2023-06-22T12:42:01;8.93;;;6.22;;
13590;SDS011;6866;50.778;7.206;2023-06-22T12:44:27;7.90;;;5.78;;
13590;SDS011;6866;50.778;7.206;2023-06-22T12:46:52;6.93;;;5.53;;
13590;SDS011;6866;50.778;7.206;2023-06-22T12:49:18;6.72;;;5.53;;
13590;SDS011;6866;50.778;7.206;2023-06-22T12:51:44;7.60;;;5.45;;
13590;SDS011;6866;50.778;7.206;2023-06-22T12:54:10;7.65;;;5.72;;
13590;SDS011;6866;50.778;7.206;2023-06-22T12:56:36;8.45;;;5.70;;
13590;SDS011;6866;50.778;7.206;2023-06-22T12:59:03;5.82;;;5.00;;
13590;SDS011;6866;50.778;7.206;2023-06-22T13:01:29;6.60;;;3.70;;
13590;SDS011;6866;50.778;7.206;2023-06-22T13:03:56;5.07;;;3.72;;
13590;SDS011;6866;50.778;7.206;2023-06-22T13:06:23;4.60;;;3.22;;
13590;SDS011;6866;50.778;7.206;2023-06-22T13:08:48;4.93;;;3.25;;
13590;SDS011;6866;50.778;7.206;2023-06-22T13:11:14;4.75;;;3.47;;
13590;SDS011;6866;50.778;7.206;2023-06-22T13:13:40;6.70;;;3.10;;
13590;SDS011;6866;50.778;7.206;2023-06-22T13:16:06;4.70;;;3.00;;
13590;SDS011;6866;50.778;7.206;2023-06-22T13:18:32;4.38;;;2.60;;
13590;SDS011;6866;50.778;7.206;2023-06-22T13:20:59;6.32;;;2.90;;
13590;SDS011;6866;50.778;7.206;2023-06-22T13:23:25;4.30;;;2.90;;
13590;SDS011;6866;50.778;7.206;2023-06-22T13:25:51;4.38;;;3.40;;
13590;SDS011;6866;50.778;7.206;2023-06-22T13:28:16;7.40;;;3.35;;
13590;SDS011;6866;50.778;7.206;2023-06-22T13:30:42;5.72;;;3.38;;
13590;SDS011;6866;50.778;7.206;2023-06-22T13:33:08;6.82;;;4.63;;
13590;SDS011;6866;50.778;7.206;2023-06-22T13:35:34;5.75;;;3.70;;
13590;SDS011;6866;50.778;7.206;2023-06-22T13:38:02;5.88;;;3.83;;
13590;SDS011;6866;50.778;7.206;2023-06-22T13:40:28;8.75;;;3.72;;
13590;SDS011;6866;50.778;7.206;2023-06-22T13:42:54;5.50;;;3.35;;
13590;SDS011;6866;50.778;7.206;2023-06-22T13:45:20;5.47;;;3.78;;
13590;SDS011;6866;50.778;7.206;2023-06-22T13:47:46;7.35;;;4.10;;
13590;SDS011;6866;50.778;7.206;2023-06-22T13:50:12;6.78;;;4.20;;
13590;SDS011;6866;50.778;7.206;2023-06-22T13:52:38;5.63;;;4.40;;
13590;SDS011;6866;50.778;7.206;2023-06-22T13:55:04;7.10;;;4.35;;
13590;SDS011;6866;50.778;7.206;2023-06-22T13:57:30;5.15;;;4.05;;
13590;SDS011;6866;50.778;7.206;2023-06-22T13:59:56;7.85;;;4.32;;
13590;SDS011;6866;50.778;7.206;2023-06-22T14:02:21;5.13;;;4.10;;
13590;SDS011;6866;50.778;7.206;2023-06-22T14:04:47;6.53;;;4.32;;
13590;SDS011;6866;50.778;7.206;2023-06-22T14:07:13;5.28;;;3.88;;
13590;SDS011;6866;50.778;7.206;2023-06-22T14:09:38;6.00;;;4.38;;
13590;SDS011;6866;50.778;7.206;2023-06-22T14:12:04;6.13;;;3.95;;
13590;SDS011;6866;50.778;7.206;2023-06-22T14:14:33;7.38;;;4.18;;
13590;SDS011;6866;50.778;7.206;2023-06-22T14:16:59;6.05;;;4.65;;
13590;SDS011;6866;50.778;7.206;2023-06-22T14:19:25;6.38;;;4.70;;
13590;SDS011;6866;50.778;7.206;2023-06-22T14:21:50;6.22;;;4.97;;
13590;SDS011;6866;50.778;7.206;2023-06-22T14:24:16;6.80;;;5.63;;
13590;SDS011;6866;50.778;7.206;2023-06-22T14:26:41;9.77;;;5.82;;
13590;SDS011;6866;50.778;7.206;2023-06-22T14:29:07;8.40;;;6.30;;
13590;SDS011;6866;50.778;7.206;2023-06-22T14:31:32;9.25;;;6.80;;
13590;SDS011;6866;50.778;7.206;2023-06-22T14:33:58;10.88;;;7.05;;
13590;SDS011;6866;50.778;7.206;2023-06-22T14:36:24;11.05;;;6.80;;
13590;SDS011;6866;50.778;7.206;2023-06-22T14:38:49;10.75;;;7.07;;
13590;SDS011;6866;50.778;7.206;2023-06-22T14:41:15;10.50;;;7.13;;
13590;SDS011;6866;50.778;7.206;2023-06-22T14:43:45;12.68;;;7.97;;
13590;SDS011;6866;50.778;7.206;2023-06-22T14:46:12;13.23;;;8.55;;
13590;SDS011;6866;50.778;7.206;2023-06-22T14:48:38;11.75;;;7.90;;
13590;SDS011;6866;50.778;7.206;2023-06-22T14:51:03;13.85;;;9.27;;
13590;SDS011;6866;50.778;7.206;2023-06-22T14:53:29;16.60;;;9.73;;
13590;SDS011;6866;50.778;7.206;2023-06-22T14:55:54;15.50;;;8.82;;
13590;SDS011;6866;50.778;7.206;2023-06-22T14:58:20;12.20;;;9.02;;
13590;SDS011;6866;50.778;7.206;2023-06-22T15:00:46;12.50;;;8.02;;
13590;SDS011;6866;50.778;7.206;2023-06-22T15:03:11;15.68;;;9.25;;
13590;SDS011;6866;50.778;7.206;2023-06-22T15:05:42;14.50;;;9.73;;
13590;SDS011;6866;50.778;7.206;2023-06-22T15:08:08;15.77;;;9.75;;
13590;SDS011;6866;50.778;7.206;2023-06-22T15:10:34;16.23;;;10.60;;
13590;SDS011;6866;50.778;7.206;2023-06-22T15:12:59;21.88;;;11.95;;
13590;SDS011;6866;50.778;7.206;2023-06-22T15:15:25;21.08;;;11.98;;
13590;SDS011;6866;50.778;7.206;2023-06-22T15:17:50;25.10;;;12.98;;
13590;SDS011;6866;50.778;7.206;2023-06-22T15:20:16;17.27;;;11.82;;
13590;SDS011;6866;50.778;7.206;2023-06-22T15:22:41;16.80;;;11.85;;
13590;SDS011;6866;50.778;7.206;2023-06-22T15:25:07;21.13;;;10.35;;
13590;SDS011;6866;50.778;7.206;2023-06-22T15:27:32;14.63;;;9.98;;
13590;SDS011;6866;50.778;7.206;2023-06-22T15:29:58;11.88;;;10.23;;
13590;SDS011;6866;50.778;7.206;2023-06-22T15:32:24;15.38;;;10.23;;
13590;SDS011;6866;50.778;7.206;2023-06-22T15:34:50;12.88;;;9.02;;
13590;SDS011;6866;50.778;7.206;2023-06-22T15:37:18;15.07;;;9.20;;
13590;SDS011;6866;50.778;7.206;2023-06-22T15:39:44;10.57;;;9.45;;
13590;SDS011;6866;50.778;7.206;2023-06-22T15:42:10;12.00;;;9.20;;
13590;SDS011;6866;50.778;7.206;2023-06-22T15:44:35;12.95;;;9.40;;
13590;SDS011;6866;50.778;7.206;2023-06-22T15:47:01;13.15;;;9.93;;
13590;SDS011;6866;50.778;7.206;2023-06-22T15:49:26;15.10;;;11.48;;
13590;SDS011;6866;50.778;7.206;2023-06-22T15:51:52;15.45;;;12.70;;
13590;SDS011;6866;50.778;7.206;2023-06-22T15:54:18;16.35;;;12.75;;
13590;SDS011;6866;50.778;7.206;2023-06-22T15:56:43;18.20;;;12.85;;